Time;durP1;ratioP1;P1;durP2;ratioP2;P2;SDS_P1;SDS_P2;PMS_P1;PMS_P2;Temp;Humidity;BMP_temperature;BMP_pressure;BME280_temperature;BME280_humidity;BME280_pressure;Samples;Min_cycle;Max_cycle;Signal;HPM_P1;HPM_P2
2022/03/11 00:00:43;;;;;;;15.05;6.85;;;5.20;99.90;;;;;;4844461;29;20137;-74
2022/03/11 00:03:12;;;;;;;22.20;9.93;;;5.20;99.90;;;;;;4844785;29;20073;-74
2022/03/11 00:05:42;;;;;;;25.52;11.13;;;5.10;99.90;;;;;;4844852;29;20080;-74
2022/03/11 00:08:08;;;;;;;15.43;7.10;;;5.10;99.90;;;;;;4844930;29;20141;-72
2022/03/11 00:10:34;;;;;;;18.30;9.75;;;5.10;99.90;;;;;;4844671;29;20042;-74
2022/03/11 00:12:59;;;;;;;16.08;6.50;;;5.00;99.90;;;;;;4844499;29;20056;-75
2022/03/11 00:15:25;;;;;;;45.78;18.67;;;5.00;99.90;;;;;;4844277;29;20049;-77
2022/03/11 00:17:51;;;;;;;26.80;11.32;;;5.00;99.90;;;;;;4828490;29;20048;-76
2022/03/11 00:20:20;;;;;;;26.45;12.52;;;5.60;99.90;;;;;;4844843;29;20456;-76
2022/03/11 00:22:47;;;;;;;24.58;10.43;;;5.00;99.90;;;;;;4828396;29;20045;-77
2022/03/11 00:25:14;;;;;;;21.98;10.30;;;5.00;99.90;;;;;;4844681;29;20053;-75
2022/03/11 00:27:40;;;;;;;18.92;9.00;;;4.90;99.90;;;;;;4842958;29;20050;-75
2022/03/11 00:30:06;;;;;;;16.75;8.27;;;4.90;99.90;;;;;;4843882;29;20122;-73
2022/03/11 00:32:32;;;;;;;19.27;8.88;;;4.90;99.90;;;;;;4827612;29;20475;-74
2022/03/11 00:34:58;;;;;;;17.05;8.82;;;4.90;99.90;;;;;;4844165;29;20058;-76
2022/03/11 00:37:24;;;;;;;15.77;7.60;;;4.80;99.90;;;;;;4844038;29;20044;-75
2022/03/11 00:39:50;;;;;;;17.13;9.30;;;4.80;99.90;;;;;;4844131;29;20053;-76
2022/03/11 00:42:15;;;;;;;14.38;7.45;;;5.20;99.90;;;;;;4844042;29;20516;-75
2022/03/11 00:44:41;;;;;;;15.32;7.50;;;5.00;99.90;;;;;;4843697;29;20049;-76
2022/03/11 00:47:08;;;;;;;16.45;8.90;;;4.70;99.90;;;;;;4843958;29;20049;-76
2022/03/11 00:49:34;;;;;;;16.70;8.45;;;4.70;99.90;;;;;;4843676;29;20050;-75
2022/03/11 00:51:59;;;;;;;17.25;8.77;;;4.70;99.90;;;;;;4826798;29;20078;-73
2022/03/11 00:54:25;;;;;;;15.98;7.90;;;4.60;99.90;;;;;;4827423;29;20073;-75
2022/03/11 00:56:51;;;;;;;15.68;8.23;;;4.60;99.90;;;;;;4843705;29;20145;-75
2022/03/11 00:59:17;;;;;;;18.27;9.10;;;4.60;99.90;;;;;;4843837;29;20072;-75
2022/03/11 01:01:43;;;;;;;16.92;8.52;;;4.50;99.90;;;;;;4843097;29;20052;-75
2022/03/11 01:04:09;;;;;;;18.17;8.32;;;4.50;99.90;;;;;;4843667;29;20042;-75
2022/03/11 01:06:35;;;;;;;18.38;8.80;;;4.80;99.90;;;;;;4842631;29;20487;-76
2022/03/11 01:09:00;;;;;;;18.55;8.82;;;4.40;99.90;;;;;;4843703;29;20057;-74
2022/03/11 01:11:26;;;;;;;18.38;9.52;;;4.40;99.90;;;;;;4826848;29;20054;-75
2022/03/11 01:13:52;;;;;;;17.52;9.55;;;4.60;99.90;;;;;;4843595;29;20551;-75
2022/03/11 01:16:18;;;;;;;18.80;9.57;;;4.30;99.90;;;;;;4843054;29;20399;-75
2022/03/11 01:18:43;;;;;;;16.98;8.52;;;4.30;99.90;;;;;;4843383;29;20057;-76
2022/03/11 01:21:11;;;;;;;20.60;10.00;;;4.20;99.90;;;;;;4826955;29;20128;-77
2022/03/11 01:23:39;;;;;;;21.77;10.88;;;4.20;99.90;;;;;;4826788;29;20113;-76
2022/03/11 01:26:04;;;;;;;18.83;9.93;;;4.20;99.90;;;;;;4843343;29;20133;-76
2022/03/11 01:28:30;;;;;;;18.20;9.98;;;4.10;99.90;;;;;;4843212;29;20132;-74
2022/03/11 01:30:56;;;;;;;19.17;10.25;;;4.00;99.90;;;;;;4841906;29;20037;-75
2022/03/11 01:33:22;;;;;;;21.58;10.57;;;4.00;99.90;;;;;;4842834;29;20054;-76
2022/03/11 01:35:48;;;;;;;20.17;10.50;;;4.00;99.90;;;;;;4842884;29;20045;-76
2022/03/11 01:38:14;;;;;;;19.95;11.50;;;4.00;99.90;;;;;;4843029;29;20049;-77
2022/03/11 01:40:40;;;;;;;24.40;13.50;;;3.90;99.90;;;;;;4843246;29;20057;-74
2022/03/11 01:43:13;;;;;;;23.52;11.60;;;3.90;99.90;;;;;;4842943;29;20050;-74
2022/03/11 01:45:38;;;;;;;22.83;12.45;;;3.90;99.90;;;;;;4842989;29;20360;-74
2022/03/11 01:48:04;;;;;;;22.77;12.27;;;3.90;99.90;;;;;;4842456;29;20046;-74
2022/03/11 01:50:30;;;;;;;29.13;15.38;;;3.90;99.90;;;;;;4826057;29;20053;-75
2022/03/11 01:52:57;;;;;;;25.48;13.90;;;3.90;99.90;;;;;;4842787;29;20072;-76
2022/03/11 01:55:23;;;;;;;21.70;11.90;;;3.90;99.90;;;;;;4842623;29;20046;-77
2022/03/11 01:57:49;;;;;;;23.80;11.88;;;3.90;99.90;;;;;;4842803;29;20167;-79
2022/03/11 02:00:15;;;;;;;21.42;12.43;;;3.90;99.90;;;;;;4825830;29;20045;-75
2022/03/11 02:02:40;;;;;;;22.98;12.52;;;3.80;99.90;;;;;;4842647;29;20131;-76
2022/03/11 02:05:06;;;;;;;23.80;13.60;;;4.40;99.90;;;;;;4842331;29;20046;-76
2022/03/11 02:07:32;;;;;;;23.08;12.57;;;3.80;99.90;;;;;;4842451;29;20502;-77
2022/03/11 02:09:58;;;;;;;24.90;12.57;;;3.80;99.90;;;;;;4842684;29;20049;-78
2022/03/11 02:12:28;;;;;;;25.08;12.45;;;3.80;99.90;;;;;;4842656;29;20056;-75
2022/03/11 02:14:53;;;;;;;28.08;13.73;;;3.80;99.90;;;;;;4842413;29;20517;-75
2022/03/11 02:17:19;;;;;;;25.00;13.57;;;3.80;99.90;;;;;;4842372;29;20042;-76
2022/03/11 02:19:45;;;;;;;24.15;12.30;;;3.70;99.90;;;;;;4841831;29;20046;-77
2022/03/11 02:22:13;;;;;;;25.23;13.57;;;4.00;99.90;;;;;;4842090;29;20050;-75
2022/03/11 02:24:40;;;;;;;25.30;13.98;;;4.20;99.90;;;;;;4842576;29;20094;-74
2022/03/11 02:27:06;;;;;;;26.58;13.50;;;3.60;99.90;;;;;;4842381;29;20065;-74
2022/03/11 02:29:31;;;;;;;26.27;14.15;;;3.60;99.90;;;;;;4842442;29;20498;-74
2022/03/11 02:31:57;;;;;;;25.27;13.77;;;3.50;99.90;;;;;;4842211;29;20057;-74
2022/03/11 02:34:23;;;;;;;24.58;14.52;;;3.50;99.90;;;;;;4841870;29;20438;-74
2022/03/11 02:36:48;;;;;;;25.98;13.85;;;3.50;99.90;;;;;;4841830;29;20060;-75
2022/03/11 02:39:14;;;;;;;28.00;14.07;;;4.00;99.90;;;;;;4825545;29;20046;-75
2022/03/11 02:41:43;;;;;;;24.15;13.75;;;3.50;99.90;;;;;;4825560;29;20455;-75
2022/03/11 02:44:09;;;;;;;25.23;14.45;;;3.50;99.90;;;;;;4840841;29;20065;-75
2022/03/11 02:46:35;;;;;;;26.00;14.48;;;3.40;99.90;;;;;;4841907;29;20081;-77
2022/03/11 02:49:01;;;;;;;27.60;15.02;;;3.40;99.90;;;;;;4841771;29;20092;-75
2022/03/11 02:51:26;;;;;;;24.65;14.10;;;3.40;99.90;;;;;;4841347;29;20470;-73
2022/03/11 02:53:52;;;;;;;25.98;13.60;;;3.40;99.90;;;;;;4841912;29;20499;-74
2022/03/11 02:56:18;;;;;;;27.42;14.07;;;3.30;99.90;;;;;;4841875;29;20065;-74
2022/03/11 02:58:44;;;;;;;28.88;14.60;;;3.30;99.90;;;;;;4841878;29;20053;-75
2022/03/11 03:01:10;;;;;;;26.08;14.77;;;3.30;99.90;;;;;;4842032;29;20042;-75
2022/03/11 03:03:36;;;;;;;26.27;15.15;;;3.20;99.90;;;;;;4825153;29;20089;-74
2022/03/11 03:06:03;;;;;;;26.73;13.73;;;4.00;99.90;;;;;;4841475;29;20408;-73
2022/03/11 03:08:29;;;;;;;29.05;14.82;;;3.20;99.90;;;;;;4841453;29;20502;-74
2022/03/11 03:10:55;;;;;;;28.67;15.02;;;3.20;99.90;;;;;;4841792;29;20052;-75
2022/03/11 03:13:20;;;;;;;26.13;15.02;;;3.20;99.90;;;;;;4845374;29;20479;-75
2022/03/11 03:15:46;;;;;;;27.30;14.98;;;3.20;99.90;;;;;;4845565;29;20053;-74
2022/03/11 03:18:12;;;;;;;27.88;14.55;;;3.10;99.90;;;;;;4829116;29;20450;-75
2022/03/11 03:20:37;;;;;;;29.20;14.68;;;3.90;99.90;;;;;;4845307;29;20053;-75
2022/03/11 03:23:03;;;;;;;27.45;14.63;;;3.10;99.90;;;;;;4844562;29;20037;-73
2022/03/11 03:25:29;;;;;;;26.60;14.70;;;4.00;99.90;;;;;;4845441;29;20509;-74
2022/03/11 03:27:54;;;;;;;27.25;14.65;;;3.00;99.90;;;;;;4845264;29;20406;-75
2022/03/11 03:30:20;;;;;;;25.45;14.63;;;3.00;99.90;;;;;;4845250;29;20110;-74
2022/03/11 03:32:46;;;;;;;29.00;15.02;;;3.00;99.90;;;;;;4828872;29;20061;-74
2022/03/11 03:35:12;;;;;;;25.83;14.43;;;2.90;99.90;;;;;;4845288;29;20049;-75
2022/03/11 03:37:38;;;;;;;28.20;14.40;;;2.90;99.90;;;;;;4844749;29;20091;-75
2022/03/11 03:40:05;;;;;;;27.08;15.40;;;2.80;99.90;;;;;;4828499;29;20078;-75
2022/03/11 03:42:31;;;;;;;27.40;15.25;;;2.80;99.90;;;;;;4845244;29;20459;-77
2022/03/11 03:44:57;;;;;;;26.33;14.25;;;2.80;99.90;;;;;;4845003;29;20050;-75
2022/03/11 03:47:22;;;;;;;27.02;14.85;;;2.80;99.90;;;;;;4828475;29;20054;-76
2022/03/11 03:49:48;;;;;;;28.67;14.88;;;2.90;99.90;;;;;;4845021;29;20046;-75
2022/03/11 03:52:14;;;;;;;29.45;15.07;;;2.70;99.90;;;;;;4844726;29;20494;-75
2022/03/11 03:54:40;;;;;;;29.40;14.88;;;2.70;99.90;;;;;;4844289;29;20077;-75
2022/03/11 03:57:07;;;;;;;27.60;14.25;;;2.70;99.90;;;;;;4844867;29;20045;-76
2022/03/11 03:59:33;;;;;;;28.67;14.43;;;2.60;99.90;;;;;;4844856;29;20636;-75
2022/03/11 04:01:59;;;;;;;29.60;15.25;;;2.70;99.90;;;;;;4844960;29;20439;-75
2022/03/11 04:04:24;;;;;;;27.73;14.73;;;2.60;99.90;;;;;;4844681;29;20178;-76
2022/03/11 04:06:51;;;;;;;31.35;15.98;;;2.60;99.90;;;;;;4844595;29;20132;-74
2022/03/11 04:09:20;;;;;;;28.23;15.05;;;2.60;99.90;;;;;;4827382;29;20050;-75
2022/03/11 04:11:46;;;;;;;26.95;15.02;;;2.50;99.90;;;;;;4844663;29;20391;-75
2022/03/11 04:14:12;;;;;;;26.70;14.88;;;2.50;99.90;;;;;;4844420;29;20155;-75
2022/03/11 04:16:38;;;;;;;25.75;15.00;;;2.50;99.90;;;;;;4844690;29;20078;-75
2022/03/11 04:19:03;;;;;;;33.95;16.40;;;2.50;99.90;;;;;;4844449;29;20053;-75
2022/03/11 04:21:30;;;;;;;27.20;14.95;;;2.50;99.90;;;;;;4844423;29;20060;-75
2022/03/11 04:23:56;;;;;;;26.38;14.75;;;2.50;99.90;;;;;;4827448;29;20054;-76
2022/03/11 04:26:21;;;;;;;28.73;15.35;;;2.60;99.90;;;;;;4843839;29;20068;-75
2022/03/11 04:28:47;;;;;;;24.27;13.93;;;2.40;99.90;;;;;;4844265;29;20422;-76
2022/03/11 04:31:13;;;;;;;28.73;14.85;;;2.40;99.90;;;;;;4844265;29;20447;-76
2022/03/11 04:33:40;;;;;;;27.73;13.90;;;2.40;99.90;;;;;;4844378;29;20053;-75
2022/03/11 04:36:07;;;;;;;26.02;14.00;;;2.40;99.90;;;;;;4844201;29;20046;-75
2022/03/11 04:38:34;;;;;;;28.55;15.05;;;2.40;99.90;;;;;;4843878;29;20463;-75
2022/03/11 04:41:00;;;;;;;26.65;13.75;;;2.40;99.90;;;;;;4827093;29;20046;-75
2022/03/11 04:43:27;;;;;;;24.63;14.32;;;3.40;99.90;;;;;;4843971;29;20054;-74
2022/03/11 04:45:53;;;;;;;24.90;14.25;;;2.70;99.90;;;;;;4827252;29;20046;-73
2022/03/11 04:48:19;;;;;;;27.58;14.27;;;3.00;99.90;;;;;;4827662;29;20403;-75
2022/03/11 04:50:45;;;;;;;30.17;15.55;;;2.40;99.90;;;;;;4843836;29;20061;-75
2022/03/11 04:53:11;;;;;;;28.15;15.75;;;2.40;99.90;;;;;;4843839;29;20042;-75
2022/03/11 04:55:37;;;;;;;28.25;14.77;;;2.40;99.90;;;;;;4826930;29;20134;-74
2022/03/11 04:58:03;;;;;;;26.63;15.15;;;2.40;99.90;;;;;;4843669;29;20218;-76
2022/03/11 05:00:29;;;;;;;26.92;14.07;;;2.30;99.90;;;;;;4843705;29;20124;-74
2022/03/11 05:02:55;;;;;;;27.45;14.88;;;2.70;99.90;;;;;;4843812;29;20061;-76
2022/03/11 05:05:22;;;;;;;23.58;13.27;;;2.30;99.90;;;;;;4843250;29;20054;-75
2022/03/11 05:07:48;;;;;;;27.42;14.88;;;2.40;99.90;;;;;;4843483;29;20086;-75
2022/03/11 05:10:14;;;;;;;28.90;14.52;;;2.30;99.90;;;;;;4843736;29;20045;-75
2022/03/11 05:12:43;;;;;;;27.10;15.05;;;2.30;99.90;;;;;;4843380;29;20050;-75
2022/03/11 05:15:12;;;;;;;27.05;14.02;;;2.30;99.90;;;;;;4843543;29;20046;-77
2022/03/11 05:17:38;;;;;;;28.88;14.80;;;2.30;99.90;;;;;;4827028;29;20070;-76
2022/03/11 05:20:05;;;;;;;27.38;14.50;;;2.30;99.90;;;;;;4843288;29;20052;-75
2022/03/11 05:22:31;;;;;;;28.80;14.52;;;2.20;99.90;;;;;;4843092;29;20064;-76
2022/03/11 05:24:57;;;;;;;27.75;14.55;;;2.50;99.90;;;;;;4843436;29;20054;-75
2022/03/11 05:27:23;;;;;;;28.70;13.77;;;2.20;99.90;;;;;;4843130;29;20085;-75
2022/03/11 05:29:49;;;;;;;27.52;15.13;;;2.20;99.90;;;;;;4842951;29;20045;-75
2022/03/11 05:32:16;;;;;;;28.77;14.82;;;2.10;99.90;;;;;;4843181;29;20050;-75
2022/03/11 05:34:42;;;;;;;29.98;14.32;;;2.10;99.90;;;;;;4842534;29;20070;-75
2022/03/11 05:37:09;;;;;;;28.20;14.02;;;2.10;99.90;;;;;;4826685;29;20129;-76
2022/03/11 05:39:36;;;;;;;20.50;8.27;;;2.10;99.90;;;;;;4843048;29;20042;-76
2022/03/11 05:42:03;;;;;;;27.88;8.40;;;2.00;99.90;;;;;;4843002;29;20491;-76
2022/03/11 05:44:28;;;;;;;22.52;7.20;;;2.00;99.90;;;;;;4842692;29;20053;-76
2022/03/11 05:46:55;;;;;;;21.38;8.60;;;2.00;99.90;;;;;;4842863;29;20414;-75
2022/03/11 05:49:21;;;;;;;21.30;7.13;;;2.00;99.90;;;;;;4842942;29;20121;-76
2022/03/11 05:51:47;;;;;;;18.25;7.88;;;2.80;99.90;;;;;;4842789;29;20061;-77
2022/03/11 05:54:13;;;;;;;19.85;8.88;;;2.00;99.90;;;;;;4842683;29;20069;-76
2022/03/11 05:56:38;;;;;;;21.83;7.82;;;2.40;99.90;;;;;;4842479;29;20070;-76
2022/03/11 05:59:05;;;;;;;19.65;7.65;;;2.00;99.90;;;;;;4842467;29;20058;-76
2022/03/11 06:01:34;;;;;;;19.25;8.48;;;2.00;99.90;;;;;;4842491;29;20068;-75
2022/03/11 06:04:01;;;;;;;21.75;7.55;;;2.00;99.90;;;;;;4842450;29;20483;-75
2022/03/11 06:06:27;;;;;;;21.77;9.07;;;2.40;99.90;;;;;;4842388;29;20125;-76
2022/03/11 06:08:53;;;;;;;19.75;7.32;;;1.90;99.90;;;;;;4842349;29;20142;-76
2022/03/11 06:11:18;;;;;;;20.27;7.82;;;2.00;99.90;;;;;;4842584;29;20444;-78
2022/03/11 06:13:44;;;;;;;20.25;6.50;;;2.60;99.90;;;;;;4842732;29;20475;-77
2022/03/11 06:16:11;;;;;;;18.02;7.50;;;1.90;99.90;;;;;;4841102;29;20405;-77
2022/03/11 06:18:36;;;;;;;15.85;6.95;;;1.90;99.90;;;;;;4826099;29;20050;-77
2022/03/11 06:21:02;;;;;;;17.80;8.18;;;1.90;99.90;;;;;;4842176;29;20129;-76
2022/03/11 06:23:31;;;;;;;23.25;7.57;;;1.90;99.90;;;;;;4842181;29;20125;-78
2022/03/11 06:25:58;;;;;;;20.10;7.50;;;1.90;99.90;;;;;;4842309;29;20053;-77
2022/03/11 06:28:23;;;;;;;27.17;9.85;;;1.90;99.90;;;;;;4841363;29;20050;-73
2022/03/11 06:30:49;;;;;;;21.30;8.93;;;1.90;99.90;;;;;;4841873;29;20102;-76
2022/03/11 06:33:15;;;;;;;23.75;10.15;;;1.90;99.90;;;;;;4810239;29;20058;-74
2022/03/11 06:35:41;;;;;;;19.60;9.32;;;2.00;99.90;;;;;;4842362;29;20061;-75
2022/03/11 06:38:10;;;;;;;21.15;8.52;;;2.00;99.90;;;;;;4842046;29;20038;-77
2022/03/11 06:40:36;;;;;;;21.88;9.73;;;2.00;99.90;;;;;;4822736;29;20046;-73
2022/03/11 06:43:02;;;;;;;23.25;8.30;;;2.00;99.90;;;;;;4840038;29;20045;-75
2022/03/11 06:45:28;;;;;;;28.33;9.73;;;2.90;99.90;;;;;;4837712;29;20125;-73
2022/03/11 06:47:54;;;;;;;26.88;9.18;;;2.00;99.90;;;;;;4840046;29;20471;-75
2022/03/11 06:50:19;;;;;;;23.75;9.70;;;2.10;99.90;;;;;;4839577;29;20418;-74
2022/03/11 06:52:45;;;;;;;19.77;7.95;;;2.10;99.90;;;;;;4839962;29;20073;-74
2022/03/11 06:55:12;;;;;;;23.73;9.23;;;2.10;99.90;;;;;;4824594;29;20467;-74
2022/03/11 06:57:37;;;;;;;21.08;8.43;;;2.20;99.90;;;;;;4823854;29;20062;-74
2022/03/11 07:00:05;;;;;;;19.90;7.82;;;2.30;99.90;;;;;;4840422;29;20073;-75
2022/03/11 07:02:31;;;;;;;22.50;8.52;;;2.20;99.90;;;;;;4838185;29;20168;-75
2022/03/11 07:04:57;;;;;;;22.50;8.50;;;2.20;99.90;;;;;;4840445;29;20534;-73
2022/03/11 07:07:22;;;;;;;24.27;10.07;;;2.20;99.90;;;;;;4841294;29;20128;-75
2022/03/11 07:09:48;;;;;;;21.77;9.35;;;2.30;99.90;;;;;;4842096;29;20053;-74
2022/03/11 07:12:14;;;;;;;21.02;9.25;;;2.30;99.90;;;;;;4842112;29;20057;-74
2022/03/11 07:14:41;;;;;;;22.20;8.40;;;2.40;99.90;;;;;;4841941;29;20496;-75
2022/03/11 07:17:07;;;;;;;21.27;8.45;;;2.40;99.90;;;;;;4824815;29;20066;-75
2022/03/11 07:19:34;;;;;;;20.95;8.65;;;2.50;99.90;;;;;;4841934;29;20125;-73
2022/03/11 07:22:02;;;;;;;21.90;9.07;;;2.50;99.90;;;;;;4841642;29;20042;-74
2022/03/11 07:24:28;;;;;;;23.23;8.57;;;2.60;99.90;;;;;;4841878;29;20129;-73
2022/03/11 07:26:54;;;;;;;22.17;9.57;;;2.60;99.90;;;;;;4841959;29;20142;-74
2022/03/11 07:29:20;;;;;;;23.60;9.95;;;3.50;99.90;;;;;;4824887;29;20114;-73
2022/03/11 07:31:46;;;;;;;26.20;11.27;;;2.90;99.90;;;;;;4841822;29;20046;-75
2022/03/11 07:34:12;;;;;;;23.85;9.82;;;2.80;99.90;;;;;;4839844;29;20057;-75
2022/03/11 07:36:37;;;;;;;24.98;9.88;;;2.80;99.90;;;;;;4841610;29;20402;-74
2022/03/11 07:39:05;;;;;;;22.83;9.43;;;3.50;99.90;;;;;;4841818;29;20103;-75
2022/03/11 07:41:31;;;;;;;24.48;9.82;;;3.60;99.90;;;;;;4841542;29;20092;-75
2022/03/11 07:43:57;;;;;;;23.30;9.30;;;3.70;99.90;;;;;;4838268;29;20483;-80
2022/03/11 07:46:23;;;;;;;23.65;8.85;;;3.70;99.90;;;;;;4840099;29;20136;-77
2022/03/11 07:48:52;;;;;;;26.80;10.02;;;3.10;99.90;;;;;;4839415;29;20054;-77
2022/03/11 07:51:18;;;;;;;23.05;9.38;;;3.20;99.90;;;;;;4840178;29;20045;-76
2022/03/11 07:53:44;;;;;;;19.10;9.00;;;3.30;99.90;;;;;;4840360;29;20074;-76
2022/03/11 07:56:12;;;;;;;19.10;8.10;;;3.80;99.90;;;;;;4808228;29;20057;-75
2022/03/11 07:58:39;;;;;;;23.42;8.02;;;3.40;99.90;;;;;;4842149;29;20061;-75
2022/03/11 08:01:08;;;;;;;20.17;8.90;;;3.60;99.90;;;;;;4842864;29;20541;-76
2022/03/11 08:03:34;;;;;;;20.63;7.63;;;3.60;99.90;;;;;;4843655;29;20050;-76
2022/03/11 08:06:00;;;;;;;17.65;7.50;;;3.60;99.90;;;;;;4826086;29;20062;-76
2022/03/11 08:08:27;;;;;;;21.52;7.97;;;3.70;99.90;;;;;;4843328;29;20061;-73
2022/03/11 08:10:54;;;;;;;20.73;9.25;;;3.80;99.90;;;;;;4811793;29;20045;-73
2022/03/11 08:13:20;;;;;;;22.27;8.20;;;3.80;99.90;;;;;;4843621;29;20054;-74
2022/03/11 08:15:46;;;;;;;17.25;7.72;;;4.00;99.90;;;;;;4843459;29;20151;-77
2022/03/11 08:18:12;;;;;;;21.98;7.53;;;4.00;99.90;;;;;;4842673;29;20046;-76
2022/03/11 08:20:38;;;;;;;17.60;7.70;;;4.80;99.90;;;;;;4842675;29;20110;-75
2022/03/11 08:23:04;;;;;;;19.20;8.30;;;4.70;99.90;;;;;;4826020;29;20053;-75
2022/03/11 08:25:30;;;;;;;21.70;8.05;;;4.30;99.90;;;;;;4826866;29;20095;-75
2022/03/11 08:27:57;;;;;;;25.80;8.75;;;4.40;99.90;;;;;;4842579;29;20075;-75
2022/03/11 08:30:25;;;;;;;19.65;8.48;;;4.40;99.90;;;;;;4842979;29;20038;-75
2022/03/11 08:32:51;;;;;;;22.95;9.07;;;4.50;99.90;;;;;;4841872;29;20053;-76
2022/03/11 08:35:18;;;;;;;21.92;8.75;;;4.60;99.90;;;;;;4808098;29;20064;-78
2022/03/11 08:37:44;;;;;;;20.77;9.05;;;5.10;99.90;;;;;;4824316;29;20111;-75
2022/03/11 08:40:11;;;;;;;23.17;8.50;;;4.80;99.90;;;;;;4807793;29;20084;-75
2022/03/11 08:42:38;;;;;;;23.73;8.75;;;4.90;99.90;;;;;;4824785;29;20086;-75
2022/03/11 08:45:05;;;;;;;20.05;7.57;;;4.90;99.90;;;;;;4807606;29;20057;-75
2022/03/11 08:47:31;;;;;;;20.35;8.70;;;5.00;99.90;;;;;;4808382;29;20056;-75
2022/03/11 08:49:57;;;;;;;22.73;8.65;;;5.10;99.90;;;;;;4825767;29;20076;-76
2022/03/11 08:52:25;;;;;;;20.85;8.30;;;5.20;99.90;;;;;;4825565;29;20042;-74
2022/03/11 08:54:52;;;;;;;21.58;7.97;;;5.20;99.90;;;;;;4825706;29;20109;-75
2022/03/11 08:57:18;;;;;;;31.63;9.13;;;5.30;99.90;;;;;;4830575;29;20128;-74
2022/03/11 08:59:45;;;;;;;21.65;8.32;;;5.50;99.90;;;;;;4823099;29;20050;-74
2022/03/11 09:02:13;;;;;;;20.80;7.97;;;5.40;99.90;;;;;;4834258;29;20053;-72
2022/03/11 09:04:39;;;;;;;21.02;8.88;;;5.60;99.90;;;;;;4836115;29;20068;-72
2022/03/11 09:07:04;;;;;;;23.45;8.07;;;5.60;99.90;;;;;;4838693;29;20046;-73
2022/03/11 09:09:32;;;;;;;17.35;8.20;;;5.60;99.90;;;;;;4821603;29;20427;-72
2022/03/11 09:11:58;;;;;;;22.60;8.63;;;6.40;99.90;;;;;;4839247;29;20089;-72
2022/03/11 09:14:24;;;;;;;20.05;8.15;;;5.80;99.90;;;;;;4822804;29;20065;-72
2022/03/11 09:16:50;;;;;;;20.75;8.32;;;6.00;99.90;;;;;;4838955;29;20046;-73
2022/03/11 09:19:16;;;;;;;20.88;8.00;;;6.20;99.90;;;;;;4840229;29;20113;-74
2022/03/11 09:21:41;;;;;;;18.65;8.65;;;6.30;99.90;;;;;;4840161;29;20061;-73
2022/03/11 09:24:07;;;;;;;22.00;7.75;;;6.40;99.00;;;;;;4839543;29;20086;-74
2022/03/11 09:26:33;;;;;;;19.55;8.35;;;6.70;98.10;;;;;;4838972;29;20130;-74
2022/03/11 09:28:59;;;;;;;17.95;7.93;;;7.10;98.30;;;;;;4822634;29;20054;-73
2022/03/11 09:31:24;;;;;;;16.88;8.10;;;6.80;98.50;;;;;;4839933;29;20116;-73
2022/03/11 09:33:50;;;;;;;18.13;7.68;;;6.70;96.00;;;;;;4840423;29;20061;-72
2022/03/11 09:36:17;;;;;;;22.25;7.88;;;6.70;93.80;;;;;;4821856;29;20525;-73
2022/03/11 09:38:43;;;;;;;19.40;8.00;;;6.70;95.20;;;;;;4822032;29;20133;-74
2022/03/11 09:41:09;;;;;;;17.20;7.22;;;6.80;93.60;;;;;;4823006;29;20073;-74
2022/03/11 09:43:37;;;;;;;15.07;6.72;;;6.80;92.60;;;;;;4840171;29;20700;-74
2022/03/11 09:46:03;;;;;;;13.73;6.45;;;6.90;91.10;;;;;;4838407;29;20506;-73
2022/03/11 09:48:30;;;;;;;16.83;6.78;;;6.90;91.80;;;;;;4838621;29;20042;-75
2022/03/11 09:50:58;;;;;;;16.70;6.35;;;7.00;92.60;;;;;;4823815;29;20090;-73
2022/03/11 09:53:24;;;;;;;19.17;8.02;;;7.00;92.60;;;;;;4839964;29;20663;-73
2022/03/11 09:55:50;;;;;;;17.08;6.57;;;7.20;92.60;;;;;;4837960;29;20093;-73
2022/03/11 09:58:15;;;;;;;18.25;7.07;;;7.30;93.20;;;;;;4820792;29;20141;-75
2022/03/11 10:00:41;;;;;;;15.55;6.95;;;7.70;91.80;;;;;;4835427;29;20045;-78
2022/03/11 10:03:07;;;;;;;17.70;7.65;;;7.50;90.80;;;;;;4830366;29;20041;-78
2022/03/11 10:05:49;;;;;;;16.85;7.53;;;7.50;87.90;;;;;;4834953;29;20053;-76
2022/03/11 10:08:15;;;;;;;14.82;6.45;;;7.50;82.00;;;;;;4820583;29;20050;-79
2022/03/11 10:10:42;;;;;;;18.75;6.72;;;7.60;86.00;;;;;;4839699;29;20045;-78
2022/03/11 10:13:10;;;;;;;17.30;6.55;;;7.60;85.70;;;;;;4838795;29;20053;-78
2022/03/11 10:15:37;;;;;;;13.02;5.75;;;7.70;83.30;;;;;;4820923;29;20072;-77
2022/03/11 10:18:07;;;;;;;19.23;7.10;;;7.80;81.20;;;;;;4837168;29;20121;-76
2022/03/11 10:20:32;;;;;;;15.75;6.68;;;7.80;78.30;;;;;;4838638;29;20065;-78
2022/03/11 10:22:58;;;;;;;14.82;5.55;;;7.90;76.10;;;;;;4838977;29;20041;-76
2022/03/11 10:25:28;;;;;;;17.58;6.97;;;8.00;75.50;;;;;;4817815;29;20109;-77
2022/03/11 10:28:09;;;;;;;13.43;6.65;;;8.10;77.00;;;;;;4834975;29;20133;-78
2022/03/11 10:30:43;;;;;;;15.88;6.72;;;8.20;74.10;;;;;;4838756;29;20050;-77
2022/03/11 10:33:14;;;;;;;15.18;6.10;;;8.20;71.20;;;;;;4838744;29;20045;-78
2022/03/11 10:35:43;;;;;;;13.90;6.03;;;8.20;72.20;;;;;;4842406;29;20491;-75
2022/03/11 10:38:11;;;;;;;15.65;6.35;;;8.30;73.20;;;;;;4822002;29;20066;-79
2022/03/11 10:40:48;;;;;;;17.15;7.28;;;8.80;73.60;;;;;;4821254;29;20057;-76
2022/03/11 10:43:28;;;;;;;19.35;7.60;;;8.40;67.80;;;;;;4838430;29;20050;-77
2022/03/11 10:45:55;;;;;;;17.15;7.28;;;8.30;68.60;;;;;;4836182;29;20191;-75
2022/03/11 10:48:41;;;;;;;15.88;6.82;;;8.60;68.40;;;;;;4832796;29;20125;-77
2022/03/11 10:51:31;;;;;;;14.43;6.45;;;8.30;66.80;;;;;;4830347;29;20417;-73
2022/03/11 10:53:57;;;;;;;16.48;6.57;;;8.30;66.20;;;;;;4833443;29;20081;-76
2022/03/11 10:56:35;;;;;;;18.33;7.07;;;8.30;66.80;;;;;;4832705;29;20080;-75
2022/03/11 10:59:22;;;;;;;20.05;6.97;;;8.40;66.70;;;;;;4835511;29;20094;-77
2022/03/11 11:01:50;;;;;;;16.65;6.60;;;8.50;66.70;;;;;;4837747;29;20503;-76
2022/03/11 11:04:17;;;;;;;18.55;6.57;;;8.80;65.10;;;;;;4838970;29;20589;-75
2022/03/11 11:06:44;;;;;;;15.85;6.72;;;8.60;65.00;;;;;;4836602;29;20061;-74
2022/03/11 11:09:13;;;;;;;20.50;6.72;;;8.60;64.10;;;;;;4834176;29;20525;-75
2022/03/11 11:11:40;;;;;;;15.65;6.18;;;8.80;65.70;;;;;;4839322;29;20498;-75
2022/03/11 11:14:08;;;;;;;16.65;7.05;;;8.80;65.10;;;;;;4821410;29;20053;-73
2022/03/11 11:16:39;;;;;;;15.68;6.53;;;8.80;63.80;;;;;;4837385;29;20080;-74
2022/03/11 11:19:16;;;;;;;16.85;6.60;;;8.90;64.90;;;;;;4834089;29;20069;-76
2022/03/11 11:21:46;;;;;;;15.63;6.70;;;9.00;64.50;;;;;;4838527;29;20061;-74
2022/03/11 11:24:14;;;;;;;15.00;7.07;;;9.00;64.10;;;;;;4828702;29;20376;-76
2022/03/11 11:26:44;;;;;;;15.32;6.82;;;9.10;63.50;;;;;;4829071;29;20734;-73
2022/03/11 11:29:10;;;;;;;14.05;5.82;;;9.20;64.40;;;;;;4834007;29;20061;-73
2022/03/11 11:31:36;;;;;;;18.00;6.70;;;9.20;63.80;;;;;;4830732;29;20125;-74
2022/03/11 11:34:02;;;;;;;13.88;5.63;;;9.40;63.80;;;;;;4833303;29;20121;-74
2022/03/11 11:36:39;;;;;;;29.02;7.95;;;9.50;64.70;;;;;;4840585;29;20053;-75
2022/03/11 11:39:07;;;;;;;23.42;8.13;;;9.50;61.90;;;;;;4841033;29;20429;-74
2022/03/11 11:41:34;;;;;;;14.55;5.90;;;9.50;61.70;;;;;;4824849;29;20122;-75
2022/03/11 11:44:05;;;;;;;15.95;6.60;;;9.70;64.10;;;;;;4841861;29;20054;-76
2022/03/11 11:46:33;;;;;;;13.57;5.72;;;9.90;61.60;;;;;;4839614;29;20049;-74
2022/03/11 11:49:06;;;;;;;17.65;5.40;;;9.90;59.30;;;;;;4838914;29;20054;-75
2022/03/11 11:51:32;;;;;;;16.85;6.82;;;9.90;60.60;;;;;;4841363;29;20053;-75
2022/03/11 11:54:08;;;;;;;13.50;5.60;;;10.30;60.00;;;;;;4841235;29;20050;-75
2022/03/11 11:56:37;;;;;;;14.52;5.82;;;10.10;60.10;;;;;;4836837;29;20418;-73
2022/03/11 11:59:17;;;;;;;16.00;5.80;;;10.20;58.80;;;;;;4824126;29;20426;-75
2022/03/11 12:01:44;;;;;;;15.68;7.00;;;10.20;59.30;;;;;;4840467;29;20490;-74
2022/03/11 12:04:27;;;;;;;15.43;5.10;;;10.20;59.30;;;;;;4840256;29;20065;-75
2022/03/11 12:07:00;;;;;;;13.43;6.13;;;10.30;58.80;;;;;;4839432;29;20140;-76
2022/03/11 12:09:41;;;;;;;15.35;5.72;;;10.60;58.60;;;;;;4839784;29;20053;-76
2022/03/11 12:12:08;;;;;;;14.88;6.22;;;10.60;59.30;;;;;;4837442;29;20050;-75
2022/03/11 12:14:57;;;;;;;13.13;5.38;;;10.60;59.40;;;;;;4841108;29;20057;-74
2022/03/11 12:17:45;;;;;;;14.77;5.63;;;10.60;56.20;;;;;;4764319;30;20059;-76
2022/03/11 12:20:35;;;;;;;14.85;6.47;;;10.70;55.30;;;;;;4746907;30;20059;-74
2022/03/11 12:23:08;;;;;;;12.57;5.68;;;10.80;54.80;;;;;;4766539;30;20691;-74
2022/03/11 12:26:01;;;;;;;13.40;5.30;;;10.90;57.20;;;;;;4765893;30;20043;-74
2022/03/11 12:28:34;;;;;;;16.10;5.82;;;11.00;57.20;;;;;;4764573;30;20150;-73
2022/03/11 12:31:02;;;;;;;16.13;6.13;;;11.20;55.70;;;;;;4762379;30;20084;-76
2022/03/11 12:33:39;;;;;;;13.80;5.43;;;11.30;56.60;;;;;;4759266;30;20239;-74
2022/03/11 12:36:13;;;;;;;16.13;5.80;;;11.40;55.20;;;;;;4762275;30;20063;-75
2022/03/11 12:38:39;;;;;;;18.52;6.10;;;11.50;55.00;;;;;;4749044;30;20138;-75
2022/03/11 12:41:10;;;;;;;13.50;5.45;;;11.60;55.60;;;;;;4750365;30;20079;-74
2022/03/11 12:43:38;;;;;;;17.45;5.40;;;11.60;53.50;;;;;;4765485;30;20060;-76